TAF Text Data
IDs:
Format:
Raw Decoded Include METAR

Data at: 2102 UTC 08 Aug 2020

KMKT 082022Z 0820/0918 28015G25KT 3SM -TSRA BKN025CB
  TEMPO 0820/0821 1SM TSRA OVC020CB
  FM082200 14006KT P6SM SCT040 BKN100
  PROB30 0906/0910 5SM -TSRA BKN025 OVC040CB
  FM091000 16006KT 5SM BR OVC015
  FM091300 17007KT P6SM BKN020
  FM091600 18008KT P6SM SCT040 BKN200